Tiempo atmosférico en la estación meteorológica de Bello, Teruel (1006 m.)



Fecha
DESCASC
Temp. máxima en grados centígrados (hora)
DESCASC
Temp. mínima en grados centígrados (hora)
DESCASC
Temp. media en grados centígrados
DESCASC
Racha de viento máxima en m/sg (hora)
DESCASC
Velocidad máxima media en intervalos de 10 minutos(hora)
DESCASC
Precipitaciones diarias en mm
DESCASC
Precipitaciones de 00:00 a 06:00 en mm
DESCASC
Precipitaciones de 06:00 a 12:00 en mm
DESCASC
Precipitaciones de 12:00 a 18:00 en mm
DESCASC
Precipitaciones de 18:00 a 24:00 en mm
DESCASC
22-01-2021 9 (06:20) 1.9 (00:00) 5.4 29.17 (07:40) 18.33 (07:40) 3.2 0 3.2 0 0
28-12-2020 5.6 (16:00) 1.4 (00:00) 3.5 20.83 (01:20) 13.89 (01:20) 3.6 3.6 0 0 0
23-01-2021 8 (23:10) 1.8 (00:00) 4.9 20 (17:10) 13.06 (16:40) 0.6 0 0 0.2 0.4
21-01-2021 8.2 (22:10) 3.3 (00:00) 5.7 20 (21:30) 12.78 (22:10) 0 0 0 0 0
24-01-2021 9.2 (15:00) 3.1 (00:00) 6.1 18.33 (02:00) 11.67 (02:00) 1.4 1.4 0 0 0
20-01-2021 6.5 (14:50) -9.2 (-00:0) -1.3 17.78 (13:30) 10 (13:30) 0 0 0 0 0
25-01-2021 10.7 (13:00) 3 (00:00) 6.8 16.39 (10:30) 10.56 (11:20) 6 0 0 6 0
29-12-2020 4.2 (14:30) -0.5 (-00:0) 1.8 14.44 (12:30) 8.61 (12:00) 0 0 0 0 0
31-12-2020 6.1 (14:30) -4.3 (-00:0) 0.9 14.17 (13:20) 10 (13:30) 0 0 0 0 0
02-01-2021 -0.2 (15:30) -6.3 (-00:0) -3.3 13.61 (14:30) 7.5 (13:20) 0.2 0 0.2 0 0
30-12-2020 4.8 (15:10) -3.5 (-00:0) 0.7 12.22 (14:30) 6.67 (14:30) 0 0 0 0 0
01-01-2021 1.8 (00:00) -1.8 (-00:0) 0 11.94 (16:40) 7.22 (16:50) 4.2 2.8 1.4 0 0
26-01-2021 11.3 (15:30) -1.6 (-00:0) 4.9 10 (15:10) 6.11 (15:10) 0 0 0 0 0
03-01-2021 3.1 (14:50) -7 (-00:0) -2 9.72 (16:20) 6.11 (16:20) 0 0 0 0 0
04-01-2021 2 (15:30) -6.7 (-00:0) -2.3 9.72 (15:30) 6.11 (12:20) 0.2 0.2 0 0 0
16-01-2021 3.9 (15:40) -7.6 (-00:0) -1.8 9.72 (04:40) 6.39 (02:50) 0 0 0 0 0
09-01-2021 -3.1 (21:10) -4.9 (-00:0) -4 8.33 (11:20) 5.83 (11:30) 19.4 5.8 1.8 10 1.8
08-01-2021 -1.9 (13:00) -5 (-00:0) -3.4 8.06 (22:30) 5.28 (22:30) 9.8 0 0 0.6 9.2
15-01-2021 2.6 (15:30) -11.8 (-00:0) -4.6 5.83 (16:40) 4.17 (21:50) 0 0 0 0 0
19-01-2021 -0.4 (16:30) -15.5 (-00:0) -8 5.83 (21:30) 3.61 (21:30) 0 0 0 0 0
05-01-2021 1.4 (16:10) -6.9 (-00:0) -2.8 5.56 (11:40) 3.61 (11:40) 0 0 0 0 0
14-01-2021 0.1 (16:30) -20.1 (07:40) -10 5 (19:40) 3.89 (20:40) 0 0 0 0 0
10-01-2021 -0.4 (13:20) -4.4 (03:00) -2.4 4.72 (00:10) 3.89 (00:10) 1.2 0 1.2 0 0
11-01-2021 -3.2 (00:00) -20.2 (-00:0) -11.7 4.17 (03:00) 2.78 (19:30) 0 0 0 0 0
07-01-2021 -1 (14:30) -5.3 (-00:0) -3.2 4.17 (12:40) 3.06 (12:40) 0 0 0 0 0
17-01-2021 4.9 (16:00) -14 (-00:0) -4.5 4.17 (21:10) 3.06 (21:10) 0 0 0 0 0
18-01-2021 0.8 (16:20) -13.2 (-00:0) -6.2 3.89 (19:00) 2.5 (19:00) 0 0 0 0 0
06-01-2021 2.9 (15:40) -10 (-00:0) -3.5 3.61 (15:00) 2.5 (00:20) 0 0 0 0 0
13-01-2021 0.6 (16:10) -17.3 (-00:0) -8.3 3.61 (02:30) 3.06 (20:40) 0 0 0 0 0
12-01-2021 -6.9 (15:50) -25.4 (-00:0) -16.1 2.78 (17:30) 1.67 (17:30) 0 0 0 0 0

Gráficas

Temp. máximas Temp. mínimas Temp. medias Precipitaciones Rachas de viento máximas Velocidades máximas media en intervalos de 10 minutos

Datos horarios

Fecha y hora oficial Temperatura (ºC) Velocidad del viento (km/h) Dirección del viento Racha (km/h) Dirección de racha Precipitación (mm) Presión (hPa) Tendencia (hPa) Humedad (%)
2021-01-26 23:00:00 8.5 8 Noroeste 21 Oeste 0 -- -- 95
2021-01-26 22:00:00 8.8 9 Noroeste 19 Oeste 0 -- -- 94
2021-01-26 21:00:00 9 13 Oeste 22 Noroeste 0 -- -- 93
2021-01-26 20:00:00 9.3 12 Noroeste 18 Noroeste 0 -- -- 92
2021-01-26 19:00:00 9.7 10 Oeste 25 Oeste 0 -- -- 89
2021-01-26 18:00:00 10.3 13 Oeste 28 Noroeste 0 -- -- 87
2021-01-26 17:00:00 10.7 17 Oeste 35 Oeste 0 -- -- 84
2021-01-26 16:00:00 11 19 Oeste 36 Oeste 0 -- -- 83
2021-01-26 15:00:00 10.6 19 Oeste 30 Oeste 0 -- -- 86
2021-01-26 14:00:00 9.7 5 Nordeste 10 Oeste 0 -- -- 90
2021-01-26 13:00:00 8 4 Noroeste 7 Norte 0 -- -- 93
2021-01-26 12:00:00 5 3 Sudeste 5 Sudeste 0 -- -- 97
2021-01-26 11:00:00 2.2 3 Sur 8 Nordeste 0 -- -- 99
2021-01-26 10:00:00 0.7 3 Este 6 Nordeste 0 -- -- 99
2021-01-26 09:00:00 -1 0 Calma 6 Sur 0 -- -- 98
2021-01-26 08:00:00 -1.6 6 Sudeste 8 Sudeste 0 -- -- 98
2021-01-26 07:00:00 -1.5 0 Calma 5 Sudeste 0 -- -- 97
2021-01-26 06:00:00 -0.6 2 Este 4 Sudeste 0 -- -- 97
2021-01-26 05:00:00 0 2 Este 5 Nordeste 0 -- -- 96
2021-01-26 04:00:00 1.2 3 Norte 12 Noroeste 0 -- -- 95
2021-01-26 03:00:00 1.8 8 Oeste 14 Noroeste 0 -- -- 96
2021-01-26 02:00:00 1.3 6 Oeste 8 Noroeste 0 -- -- 97
2021-01-26 01:00:00 2.4 3 Norte 5 Norte 0 -- -- 97
2021-01-26 00:00:00 3.1 2 Sudoeste 9 Nordeste 0 -- -- 97
2021-01-25 23:00:00 3.8 6 Oeste 12 Oeste 0 -- -- 98
2021-01-25 22:00:00 3.4 6 Noroeste 9 Noroeste 0 -- -- 97
2021-01-25 21:00:00 3 3 Noroeste 9 Norte 0 -- -- 96
2021-01-25 20:00:00 4.4 5 Norte 11 Norte 0 -- -- 94
2021-01-25 19:00:00 5.9 8 Noroeste 15 Noroeste 0 -- -- 93
2021-01-25 18:00:00 6.4 10 Noroeste 27 Noroeste 1.2 -- -- 95
2021-01-25 17:00:00 7.1 15 Norte 36 Oeste 3.2 -- -- 93
2021-01-25 16:00:00 9.5 23 Noroeste 42 Oeste 1.2 -- -- 92
2021-01-25 15:00:00 9.8 29 Oeste 52 Oeste 0.4 -- -- 88
2021-01-25 14:00:00 10.3 33 Oeste 54 Oeste 0 -- -- 84
2021-01-25 13:00:00 10.7 33 Oeste 58 Oeste 0 -- -- 81
2021-01-25 12:00:00 9.9 35 Oeste 55 Oeste 0 -- -- 81
2021-01-25 11:00:00 8.9 35 Oeste 59 Oeste 0 -- -- 86
2021-01-25 10:00:00 8.2 33 Oeste 53 Oeste 0 -- -- 86
2021-01-25 09:00:00 7.3 27 Oeste 51 Oeste 0 -- -- 86
2021-01-25 08:00:00 6.9 32 Oeste 54 Oeste 0 -- -- 87
2021-01-25 07:00:00 6.6 24 Oeste 44 Oeste 0 -- -- 88
2021-01-25 06:00:00 6.1 20 Oeste 31 Oeste 0 -- -- 86
2021-01-25 05:00:00 4 3 Noroeste 10 Sudoeste 0 -- -- 88
2021-01-25 04:00:00 4.6 6 Sudoeste 18 Oeste 0 -- -- 85
2021-01-25 03:00:00 4.3 11 Oeste 26 Oeste 0 -- -- 87
2021-01-25 02:00:00 3.8 13 Oeste 24 Oeste 0 -- -- 87
2021-01-25 01:00:00 3.9 13 Oeste 22 Oeste 0 -- -- 83
2021-01-25 00:00:00 3.8 14 Oeste 21 Oeste 0 -- -- 82
2021-01-24 23:00:00 3.6 12 Oeste 17 Oeste 0 -- -- 80
2021-01-24 22:00:00 4.1 9 Oeste 16 Noroeste 0 -- -- 77
2021-01-24 21:00:00 4.6 11 Oeste 17 Oeste 0 -- -- 75
2021-01-24 20:00:00 5 8 Oeste 18 Noroeste 0 -- -- 76
2021-01-24 19:00:00 5.8 9 Oeste 28 Oeste 0 -- -- 72
2021-01-24 18:00:00 7.5 16 Oeste 34 Noroeste 0 -- -- 62
2021-01-24 17:00:00 8.5 24 Oeste 39 Noroeste 0 -- -- 56
2021-01-24 16:00:00 9.1 23 Oeste 50 Oeste 0 -- -- 56
2021-01-24 15:00:00 9.2 31 Oeste 48 Oeste 0 -- -- 53
2021-01-24 14:00:00 8.8 26 Noroeste 53 Noroeste 0 -- -- 59
2021-01-24 13:00:00 8.1 33 Noroeste 57 Noroeste 0 -- -- 60
2021-01-24 12:00:00 7 25 Noroeste 44 Noroeste 0 -- -- 69
2021-01-24 11:00:00 6.4 23 Noroeste 38 Noroeste 0 -- -- 74
2021-01-24 10:00:00 5.8 19 Noroeste 33 Noroeste 0 -- -- 78
2021-01-24 09:00:00 5.7 25 Noroeste 45 Oeste 0 -- -- 77
2021-01-24 08:00:00 6 29 Noroeste 51 Noroeste 0 -- -- 76
2021-01-24 07:00:00 5.1 18 Oeste 54 Oeste 0 -- -- 80
2021-01-24 06:00:00 6 26 Oeste 49 Oeste 0 -- -- 75
2021-01-24 05:00:00 6.3 28 Oeste 54 Oeste 0 -- -- 75
2021-01-24 04:00:00 6.3 33 Oeste 58 Noroeste 0 -- -- 74
2021-01-24 03:00:00 6.4 26 Noroeste 61 Oeste 0 -- -- 78
2021-01-24 02:00:00 7.3 42 Oeste 66 Noroeste 0 -- -- 72
2021-01-24 01:00:00 7.8 30 Oeste 51 Oeste 1.4 -- -- 92
2021-01-24 00:00:00 8 37 Oeste 68 Oeste 0.2 -- -- 89
2021-01-23 23:00:00 7.9 44 Oeste 65 Oeste 0 -- -- 83
2021-01-23 22:00:00 7.2 37 Oeste 59 Oeste 0 -- -- 83
2021-01-23 21:00:00 6.5 38 Oeste 66 Oeste 0 -- -- 85
2021-01-23 20:00:00 5.6 39 Oeste 65 Oeste 0.2 -- -- 84
2021-01-23 19:00:00 5.6 38 Oeste 65 Oeste 0 -- -- 85
2021-01-23 18:00:00 4.9 40 Oeste 72 Oeste 0.2 -- -- 84
2021-01-23 17:00:00 5.6 45 Oeste 70 Oeste 0 -- -- 76
2021-01-23 16:00:00 5.4 44 Oeste 67 Oeste 0 -- -- 79
2021-01-23 15:00:00 5.8 38 Oeste 68 Oeste 0 -- -- 76
2021-01-23 14:00:00 6.1 40 Oeste 69 Oeste 0 -- -- 73
2021-01-23 13:00:00 5.5 39 Oeste 61 Oeste 0 -- -- 76
2021-01-23 12:00:00 5 33 Oeste 53 Oeste 0 -- -- 76
2021-01-23 11:00:00 4.1 25 Oeste 49 Oeste 0 -- -- 79
2021-01-23 10:00:00 2.9 22 Oeste 38 Oeste 0 -- -- 79
2021-01-23 09:00:00 2.1 14 Oeste 33 Oeste 0 -- -- 81
2021-01-23 08:00:00 1.9 21 Oeste 37 Oeste 0 -- -- 82
2021-01-23 07:00:00 2 19 Oeste 33 Oeste 0 -- -- 81
2021-01-23 06:00:00 1.9 19 Oeste 37 Oeste 0 -- -- 80
2021-01-23 05:00:00 2.1 16 Oeste 33 Sudoeste 0 -- -- 81
2021-01-23 04:00:00 1.9 15 Oeste 33 Oeste 0 -- -- 82
2021-01-23 03:00:00 2.2 21 Oeste 36 Oeste 0 -- -- 82
2021-01-23 02:00:00 2.4 21 Oeste 39 Oeste 0 -- -- 82
2021-01-23 01:00:00 2.3 22 Oeste 33 Oeste 0 -- -- 81
2021-01-23 00:00:00 1.9 16 Oeste 26 Oeste 0 -- -- 82
2021-01-22 23:00:00 2.2 12 Oeste 28 Noroeste 0 -- -- 79
2021-01-22 22:00:00 3.6 20 Oeste 32 Oeste 0 -- -- 73
2021-01-22 21:00:00 3.6 18 Oeste 31 Noroeste 0 -- -- 76
2021-01-22 20:00:00 3.8 18 Noroeste 41 Oeste 0 -- -- 73
2021-01-22 19:00:00 4.7 16 Noroeste 31 Noroeste 0 -- -- 69
2021-01-22 18:00:00 5.6 26 Noroeste 53 Noroeste 0 -- -- 62
2021-01-22 17:00:00 6.7 30 Noroeste 56 Noroeste 0 -- -- 60
2021-01-22 16:00:00 6.5 33 Noroeste 65 Noroeste 0 -- -- 65
2021-01-22 15:00:00 8.2 36 Noroeste 72 Noroeste 0 -- -- 58
2021-01-22 14:00:00 7.9 42 Noroeste 70 Oeste 0 -- -- 63
2021-01-22 13:00:00 6.4 34 Oeste 66 Oeste 0 -- -- 75
2021-01-22 12:00:00 6.3 49 Oeste 78 Oeste 0 -- -- 76
2021-01-22 11:00:00 5.6 43 Oeste 71 Oeste 0 -- -- 76
2021-01-22 10:00:00 4.6 40 Oeste 71 Oeste 0 -- -- 78
2021-01-22 09:00:00 3.8 38 Oeste 58 Oeste 0 -- -- 82
2021-01-22 08:00:00 3.3 37 Oeste 105 Noroeste -- -- -- 88
2021-01-22 07:00:00 8.3 31 Oeste 60 Oeste 0.4 -- -- 85
2021-01-22 06:00:00 8.5 40 Sudoeste 61 Oeste 0 -- -- 84
2021-01-22 05:00:00 8.4 40 Sudoeste 70 Oeste 0 -- -- 85
2021-01-22 04:00:00 8.5 35 Oeste 51 Oeste 0 -- -- 83
2021-01-22 03:00:00 8.3 32 Oeste 53 Sudoeste 0 -- -- 84
2021-01-22 02:00:00 8.3 33 Oeste 56 Oeste 0 -- -- 83
2021-01-22 01:00:00 8.4 36 Oeste 54 Oeste 0 -- -- 81
2021-01-22 00:00:00 8.1 33 Oeste 55 Oeste 0 -- -- 82
2021-01-21 23:00:00 7.9 30 Oeste 70 Oeste 0 -- -- 83
2021-01-21 22:00:00 8 40 Oeste 72 Oeste 0 -- -- 81
2021-01-21 21:00:00 7.7 40 Oeste 64 Oeste 0 -- -- 82
2021-01-21 20:00:00 7.1 33 Oeste 57 Oeste 0 -- -- 83
2021-01-21 19:00:00 7.2 33 Oeste 63 Oeste 0 -- -- 81
2021-01-21 18:00:00 7.1 37 Oeste 61 Oeste 0 -- -- 81
2021-01-21 17:00:00 7.1 35 Oeste 59 Oeste 0 -- -- 80
2021-01-21 16:00:00 7 33 Oeste 52 Oeste 0 -- -- 78
2021-01-21 15:00:00 6.9 24 Oeste 52 Oeste 0 -- -- 79
2021-01-21 14:00:00 6.7 37 Oeste 56 Sudoeste 0 -- -- 78
2021-01-21 13:00:00 6.5 31 Oeste 49 Oeste 0 -- -- 78
2021-01-21 12:00:00 5.5 23 Oeste 40 Oeste 0 -- -- 82
2021-01-21 11:00:00 5.3 21 Oeste 34 Oeste 0 -- -- 85
2021-01-21 10:00:00 4.5 19 Oeste 30 Oeste 0 -- -- 88
2021-01-21 09:00:00 3.7 16 Oeste 35 Oeste 0 -- -- 91
2021-01-21 08:00:00 4 20 Oeste 40 Oeste 0 -- -- 89
2021-01-21 07:00:00 3.7 18 Oeste 36 Oeste 0 -- -- 92
2021-01-21 06:00:00 3.7 21 Oeste 39 Oeste 0 -- -- 90
2021-01-21 05:00:00 3.9 21 Oeste 36 Oeste 0 -- -- 90
2021-01-21 04:00:00 3.8 8 Oeste 35 Oeste 0 -- -- 91
2021-01-21 03:00:00 3.9 18 Oeste 35 Oeste 0 -- -- 91
2021-01-21 02:00:00 4 11 Oeste 19 Oeste 0 -- -- 90
2021-01-21 01:00:00 3.8 4 Sur 32 Oeste 0 -- -- 86
2021-01-21 00:00:00 3.7 11 Oeste 19 Oeste 0 -- -- 88
2021-01-20 23:00:00 4.1 5 Sudoeste 19 Sudoeste 0 -- -- 87
2021-01-20 22:00:00 4.2 6 Sudoeste 33 Oeste 0 -- -- 87
2021-01-20 21:00:00 4.6 6 Sudoeste 17 Sudoeste 0 -- -- 86
2021-01-20 20:00:00 4.9 7 Sur 22 Sudoeste 0 -- -- 87
2021-01-20 19:00:00 4.4 15 Sudoeste 26 Sur 0 -- -- 84
2021-01-20 18:00:00 5.1 10 Sudoeste 33 Sudoeste 0 -- -- 79
2021-01-20 17:00:00 5.2 23 Sudoeste 41 Oeste 0 -- -- 79
2021-01-20 16:00:00 5.6 19 Oeste 48 Sudoeste 0 -- -- 79
2021-01-20 15:00:00 5.6 27 Sudoeste 51 Sudoeste 0 -- -- 75
2021-01-20 14:00:00 5.3 24 Sudoeste 64 Sudoeste 0 -- -- 75
2021-01-20 13:00:00 5.2 20 Sudoeste 42 Sudoeste 0 -- -- 75
2021-01-20 12:00:00 4.5 16 Oeste 43 Sudoeste 0 -- -- 77
2021-01-20 11:00:00 4.1 8 Sur 25 Sudoeste 0 -- -- 79
2021-01-20 10:00:00 4.1 19 Sudoeste 32 Sudoeste 0 -- -- 77
2021-01-20 09:00:00 3.4 8 Sur 22 Sudoeste 0 -- -- 77
2021-01-20 08:00:00 3.7 8 Sudoeste 20 Sudoeste 0 -- -- 76
2021-01-20 07:00:00 3.3 15 Oeste 26 Oeste 0 -- -- 76
2021-01-20 06:00:00 2.4 13 Oeste 27 Sudoeste 0 -- -- 68
2021-01-20 05:00:00 1.3 13 Sudoeste 30 Sur 0 -- -- 72
2021-01-20 04:00:00 -1.7 10 Sur 17 Sur 0 -- -- 86
2021-01-20 03:00:00 -2.4 5 Noroeste 18 Sudoeste 0 -- -- 80
2021-01-20 02:00:00 -3.7 5 Nordeste 9 Norte 0 -- -- 87
2021-01-20 01:00:00 -3 10 Sudoeste 17 Sudoeste 0 -- -- 68
2021-01-20 00:00:00 -9.2 3 Sudoeste 8 Sudoeste 0 -- -- 89
2021-01-19 23:00:00 -8.6 3 Norte 10 Norte 0 -- -- 88
2021-01-19 22:00:00 -7.1 0 Calma 21 Sudoeste 0 -- -- 85
2021-01-19 21:00:00 -7.7 4 Noroeste 10 Nordeste 0 -- -- 89
2021-01-19 20:00:00 -8.8 5 Nordeste 10 Sudoeste 0 -- -- 78
2021-01-19 19:00:00 -5.9 7 Oeste 13 Norte 0 -- -- 86
2021-01-19 18:00:00 -3.5 0 Calma 7 Nordeste 0 -- -- 72
2021-01-19 17:00:00 -1.1 5 Sudoeste 9 Noroeste 0 -- -- 72
2021-01-19 16:00:00 -1.1 4 Norte 9 Norte 0 -- -- 77
2021-01-19 15:00:00 -2.4 0 Calma 8 Sudeste 0 -- -- 77
2021-01-19 14:00:00 -4.2 4 Norte 6 Norte 0 -- -- 81
2021-01-19 13:00:00 -4.2 0 Calma 4 Sudeste 0 -- -- 78
2021-01-19 12:00:00 -6.2 2 Este 4 Este 0 -- -- 93
2021-01-19 11:00:00 -8.9 0 Calma 2 Sudoeste 0 -- -- 93
2021-01-19 10:00:00 -12.5 0 Calma 2 Sudoeste 0 -- -- 92
2021-01-19 09:00:00 -15.4 0 Calma 2 Sudoeste 0 -- -- 88
2021-01-19 08:00:00 -15.1 0 Calma 2 Sudoeste 0 -- -- 88
2021-01-19 07:00:00 -15 0 Calma 2 Sur 0 -- -- 88
2021-01-19 06:00:00 -14.9 0 Calma 3 Nordeste 0 -- -- 88
2021-01-19 05:00:00 -14.8 4 Sudoeste 6 Sudoeste 0 -- -- 88
2021-01-19 04:00:00 -14.6 0 Calma 9 Oeste 0 -- -- 88
2021-01-19 03:00:00 -14.3 2 Sudoeste 4 Oeste 0 -- -- 88
2021-01-19 02:00:00 -14.2 2 Sudoeste 5 Oeste 0 -- -- 89
2021-01-19 01:00:00 -13.6 0 Calma 4 Oeste 0 -- -- 89
2021-01-19 00:00:00 -12.2 0 Calma 5 Sur 0 -- -- 89
2021-01-18 23:00:00 -12 0 Calma 7 Oeste 0 -- -- 91
2021-01-18 22:00:00 -11.1 2 Este 5 Sudoeste 0 -- -- 91
2021-01-18 21:00:00 -9.8 2 Sudoeste 5 Sudoeste 0 -- -- 93
2021-01-18 20:00:00 -7.5 0 Calma 5 Este 0 -- -- 93
2021-01-18 19:00:00 -6.4 9 Sudoeste 14 Sudoeste 0 -- -- 90
2021-01-18 18:00:00 -3.9 5 Sur 7 Sudoeste 0 -- -- 84
2021-01-18 17:00:00 -0.5 4 Oeste 8 Oeste 0 -- -- 77
2021-01-18 16:00:00 0.6 0 Calma 8 Este 0 -- -- 77
2021-01-18 15:00:00 -0.4 3 Sur 5 Este 0 -- -- 73
2021-01-18 14:00:00 -1.9 0 Calma 8 Nordeste 0 -- -- 77
2021-01-18 13:00:00 -3.2 0 Calma 4 Este 0 -- -- 78
2021-01-18 12:00:00 -5.8 0 Calma 6 Sur 0 -- -- 88
2021-01-18 11:00:00 -8.2 2 Oeste 6 Nordeste 0 -- -- 94
2021-01-18 10:00:00 -10.9 0 Calma 3 Noroeste 0 -- -- 93
2021-01-18 09:00:00 -13.1 3 Oeste 8 Oeste 0 -- -- 90
2021-01-18 08:00:00 -12.4 3 Sudoeste 6 Sur 0 -- -- 90
2021-01-18 07:00:00 -11.1 2 Oeste 7 Oeste 0 -- -- 91
2021-01-18 06:00:00 -10.4 3 Sudeste 7 Noroeste 0 -- -- 92
2021-01-18 05:00:00 -9.4 6 Oeste 9 Oeste 0 -- -- 93
2021-01-18 04:00:00 -9.6 4 Sudeste 6 Sudeste 0 -- -- 90
2021-01-18 03:00:00 -7.7 0 Calma 8 Este 0 -- -- 89
2021-01-18 02:00:00 -6.6 3 Sur 10 Noroeste 0 -- -- 90
2021-01-18 01:00:00 -5.8 0 Calma 9 Nordeste 0 -- -- 87
2021-01-18 00:00:00 -3.1 3 Nordeste 13 Oeste 0 -- -- 74
2021-01-17 23:00:00 -4.6 4 Sudeste 10 Oeste 0 -- -- 82
2021-01-17 22:00:00 -1.5 4 Noroeste 15 Oeste 0 -- -- 78
2021-01-17 21:00:00 0.9 6 Oeste 13 Oeste 0 -- -- 75
2021-01-17 20:00:00 -0.3 5 Noroeste 8 Noroeste 0 -- -- 82
2021-01-17 19:00:00 -0.9 2 Norte 9 Oeste 0 -- -- 76
2021-01-17 18:00:00 1.1 6 Oeste 12 Oeste 0 -- -- 66
2021-01-17 17:00:00 4.3 5 Oeste 10 Noroeste 0 -- -- 57
2021-01-17 16:00:00 4.9 4 Noroeste 8 Noroeste 0 -- -- 53
2021-01-17 15:00:00 1.8 0 Calma 8 Oeste 0 -- -- 66
2021-01-17 14:00:00 0.7 4 Sur 5 Sur 0 -- -- 56
2021-01-17 13:00:00 -0.7 0 Calma 4 Sudeste 0 -- -- 63
2021-01-17 12:00:00 -4.2 2 Sudeste 4 Sur 0 -- -- 68
2021-01-17 11:00:00 -7.4 0 Calma 4 Sudoeste 0 -- -- 68
2021-01-17 10:00:00 -10.6 5 Sudoeste 8 Oeste 0 -- -- 78
2021-01-17 09:00:00 -12.6 5 Noroeste 8 Noroeste 0 -- -- 82
2021-01-17 08:00:00 -13.5 0 Calma 6 Sudoeste 0 -- -- 80
2021-01-17 07:00:00 -13.2 4 Este 10 Oeste 0 -- -- 73
2021-01-17 06:00:00 -12.2 4 Sudoeste 9 Sudoeste 0 -- -- 81
2021-01-17 05:00:00 -11.6 0 Calma 9 Sudoeste 0 -- -- 78
2021-01-17 04:00:00 -10.8 8 Sudoeste 10 Sudoeste 0 -- -- 79
2021-01-17 03:00:00 -10 3 Sudoeste 4 Sudoeste 0 -- -- 80
2021-01-17 02:00:00 -8.7 2 Nordeste 8 Este 0 -- -- 78
2021-01-17 01:00:00 -3.7 9 Noroeste 14 Oeste 0 -- -- 65
2021-01-17 00:00:00 -7.6 0 Calma 6 Este 0 -- -- 77
2021-01-16 23:00:00 -5 4 Nordeste 14 Noroeste 0 -- -- 66
2021-01-16 22:00:00 -3 10 Noroeste 14 Noroeste 0 -- -- 71
2021-01-16 21:00:00 -2.9 2 Oeste 12 Noroeste 0 -- -- 68
2021-01-16 20:00:00 -1 9 Noroeste 14 Norte 0 -- -- 69
2021-01-16 19:00:00 -1.5 7 Noroeste 14 Noroeste 0 -- -- 72
2021-01-16 18:00:00 1.2 10 Noroeste 15 Noroeste 0 -- -- 65
2021-01-16 17:00:00 3.6 5 Oeste 18 Noroeste 0 -- -- 59
2021-01-16 16:00:00 3.4 14 Norte 30 Noroeste 0 -- -- 61
2021-01-16 15:00:00 3 19 Noroeste 32 Noroeste 0 -- -- 62
2021-01-16 14:00:00 3.7 5 Norte 14 Norte 0 -- -- 65
2021-01-16 13:00:00 2.4 0 Calma 5 Sudeste 0 -- -- 64
2021-01-16 12:00:00 0.9 2 Sudoeste 10 Sudoeste 0 -- -- 67
2021-01-16 11:00:00 -2.6 6 Sudoeste 8 Sudoeste 0 -- -- 76
2021-01-16 10:00:00 -4.1 9 Noroeste 17 Noroeste 0 -- -- 79
2021-01-16 09:00:00 -6.7 4 Sudoeste 20 Noroeste 0 -- -- 85
2021-01-16 08:00:00 -4.5 13 Noroeste 21 Noroeste 0 -- -- 84
2021-01-16 07:00:00 -2.8 11 Noroeste 28 Noroeste 0 -- -- 84
2021-01-16 06:00:00 -1.6 19 Norte 34 Noroeste 0 -- -- 83
2021-01-16 05:00:00 -2.4 9 Norte 35 Noroeste 0 -- -- 86
2021-01-16 04:00:00 -2.1 23 Noroeste 32 Noroeste 0 -- -- 87
2021-01-16 03:00:00 -2.8 23 Noroeste 31 Noroeste 0 -- -- 88
2021-01-16 02:00:00 -2.4 18 Noroeste 27 Noroeste 0 -- -- 87
2021-01-16 01:00:00 -3.6 11 Noroeste 16 Noroeste 0 -- -- 93
2021-01-16 00:00:00 -3.5 10 Noroeste 14 Noroeste 0 -- -- 96
2021-01-15 23:00:00 -6.4 5 Noroeste 14 Noroeste 0 -- -- 90
2021-01-15 22:00:00 -4.3 13 Noroeste 19 Noroeste 0 -- -- 90
2021-01-15 21:00:00 -3.3 11 Noroeste 15 Oeste 0 -- -- 88
2021-01-15 20:00:00 -3.8 8 Noroeste 12 Noroeste 0 -- -- 90
2021-01-15 19:00:00 -2.6 6 Noroeste 13 Norte 0 -- -- 85
2021-01-15 18:00:00 -0.5 7 Noroeste 18 Norte 0 -- -- 83
2021-01-15 17:00:00 1 9 Norte 21 Norte 0 -- -- 84
2021-01-15 16:00:00 1.9 6 Norte 20 Norte 0 -- -- 81
2021-01-15 15:00:00 2 13 Noroeste 20 Norte 0 -- -- 82
2021-01-15 14:00:00 1.4 4 Norte 8 Noroeste 0 -- -- 83
2021-01-15 13:00:00 -0.3 6 Noroeste 15 Noroeste 0 -- -- 94
2021-01-15 12:00:00 -1.2 9 Noroeste 15 Norte 0 -- -- 99
2021-01-15 11:00:00 -3.5 7 Noroeste 9 Oeste 0 -- -- 98
2021-01-15 10:00:00 -3.3 6 Noroeste 13 Noroeste 0 -- -- 97
2021-01-15 09:00:00 -2.2 10 Noroeste 14 Noroeste 0 -- -- 98
2021-01-15 08:00:00 -2 6 Oeste 13 Noroeste 0 -- -- 98
2021-01-15 07:00:00 -2 9 Noroeste 20 Noroeste 0 -- -- 98
2021-01-15 06:00:00 -2.9 12 Noroeste 18 Noroeste 0 -- -- 97
2021-01-15 05:00:00 -11.6 0 Calma 12 Noroeste 0 -- -- 90
2021-01-15 04:00:00 -9.6 8 Noroeste 10 Noroeste 0 -- -- 94
2021-01-15 03:00:00 -9.1 3 Norte 14 Oeste 0 -- -- 90
2021-01-15 02:00:00 -9.5 0 Calma 4 Sur 0 -- -- 93
2021-01-15 01:00:00 -7.7 3 Este 4 Este 0 -- -- 92
2021-01-15 00:00:00 -5.7 5 Noroeste 10 Oeste 0 -- -- 92
2021-01-14 23:00:00 -5.8 6 Este 14 Este 0 -- -- 82
2021-01-14 22:00:00 -6.6 4 Noroeste 14 Sudoeste 0 -- -- 91
2021-01-14 21:00:00 -6.9 13 Oeste 15 Sudoeste 0 -- -- 89
2021-01-14 20:00:00 -6.2 8 Oeste 18 Sudoeste 0 -- -- 83
2021-01-14 19:00:00 -5.4 4 Oeste 13 Oeste 0 -- -- 81
2021-01-14 18:00:00 -7.7 3 Sudeste 8 Noroeste 0 -- -- 74
2021-01-14 17:00:00 -3.3 3 Noroeste 9 Oeste 0 -- -- 72
2021-01-14 16:00:00 -0.8 0 Calma 6 Sudoeste 0 -- -- 69
2021-01-14 15:00:00 -3.7 4 Sudeste 6 Sudeste 0 -- -- 72
2021-01-14 14:00:00 -4.3 0 Calma 3 Sudeste 0 -- -- 69
2021-01-14 13:00:00 -6.3 2 Sudeste 4 Sudeste 0 -- -- 74
2021-01-14 12:00:00 -8.9 0 Calma 3 Este 0 -- -- 85
2021-01-14 11:00:00 -12.9 2 Sudoeste 4 Oeste 0 -- -- 89
2021-01-14 10:00:00 -14.9 -- -- -- -- 0 -- -- 93
2021-01-14 09:00:00 -19.6 2 Nordeste 7 Noroeste 0 -- -- 84
2021-01-14 08:00:00 -19.8 4 Oeste 5 Oeste 0 -- -- 85
2021-01-14 07:00:00 -18.6 3 Oeste 5 Oeste 0 -- -- 86
2021-01-14 06:00:00 -18.2 0 Calma 10 Oeste 0 -- -- 85
2021-01-14 05:00:00 -17.9 0 Calma 8 Oeste 0 -- -- 86
2021-01-14 04:00:00 -18.4 4 Oeste 5 Oeste 0 -- -- 87
2021-01-14 03:00:00 -16.5 3 Sudoeste 4 Sudoeste 0 -- -- 89
2021-01-14 02:00:00 -16.1 0 Calma 4 Sudoeste 0 -- -- 88
2021-01-14 01:00:00 -14.9 3 Oeste 9 Sudoeste 0 -- -- 86
2021-01-14 00:00:00 -14.4 0 Calma 8 Noroeste 0 -- -- 87
2021-01-13 23:00:00 -12.8 3 Sudoeste 5 Oeste 0 -- -- 89
2021-01-13 22:00:00 -11.9 0 Calma 4 Nordeste 0 -- -- 86
2021-01-13 21:00:00 -9.8 5 Oeste 13 Sudoeste 0 -- -- 88
2021-01-13 20:00:00 -9.5 0 Calma 10 Oeste 0 -- -- 85
2021-01-13 19:00:00 -7.4 9 Oeste 12 Oeste 0 -- -- 88
2021-01-13 18:00:00 -5.5 6 Sudoeste 9 Sudoeste 0 -- -- 81
2021-01-13 17:00:00 -0.6 2 Sudoeste 5 Sudoeste 0 -- -- 71
2021-01-13 16:00:00 -0.1 3 Oeste 9 Este 0 -- -- 76
2021-01-13 15:00:00 0.2 5 Norte 8 Noroeste 0 -- -- 78
2021-01-13 14:00:00 -0.9 4 Oeste 8 Nordeste 0 -- -- 75
2021-01-13 13:00:00 -1.8 0 Calma 6 Norte 0 -- -- 79
2021-01-13 12:00:00 -4.4 0 Calma 6 Sudoeste 0 -- -- 89
2021-01-13 11:00:00 -8.5 5 Sudoeste 8 Sudeste 0 -- -- 92
2021-01-13 10:00:00 -10.8 4 Noroeste 9 Noroeste 0 -- -- 92
2021-01-13 09:00:00 -13.3 3 Noroeste 10 Oeste 0 -- -- 91
2021-01-13 08:00:00 -14.2 6 Oeste 10 Oeste 0 -- -- 91
2021-01-13 07:00:00 -16.8 4 Norte 7 Noroeste 0 -- -- 88
2021-01-13 06:00:00 -16 0 Calma 5 Oeste 0 -- -- 88
2021-01-13 05:00:00 -15.5 3 Sudoeste 6 Nordeste 0 -- -- 89
2021-01-13 04:00:00 -16.5 4 Noroeste 9 Sudeste 0 -- -- 88
2021-01-13 03:00:00 -16 4 Nordeste 13 Oeste 0 -- -- 86
2021-01-13 02:00:00 -16.6 4 Sudoeste 8 Sudoeste 0 -- -- 89
2021-01-13 01:00:00 -15.2 2 Noroeste 8 Sur 0 -- -- 90
2021-01-13 00:00:00 -16.9 3 Sudeste 6 Este 0 -- -- 86
2021-01-12 23:00:00 -14.7 5 Oeste 8 Sudoeste 0 -- -- 91
2021-01-12 22:00:00 -17.2 4 Sudeste 8 Oeste 0 -- -- 88
2021-01-12 21:00:00 -15.3 5 Oeste 8 Sudoeste 0 -- -- 89
2021-01-12 20:00:00 -15.8 4 Este 6 Oeste 0 -- -- 81
2021-01-12 19:00:00 -14.4 3 Norte 6 Oeste 0 -- -- 84
2021-01-12 18:00:00 -12.6 3 Sudeste 10 Sudoeste 0 -- -- 76
2021-01-12 17:00:00 -9.4 3 Sur 7 Nordeste 0 -- -- 74
2021-01-12 16:00:00 -7.8 3 Nordeste 5 Sudoeste 0 -- -- 69
2021-01-12 15:00:00 -7.9 0 Calma 4 Sur 0 -- -- 73
2021-01-12 14:00:00 -8.9 0 Calma 5 Nordeste 0 -- -- 77
2021-01-12 13:00:00 -11.3 2 Este 4 Nordeste 0 -- -- 82
2021-01-12 12:00:00 -14.8 3 Nordeste 5 Norte 0 -- -- 87
2021-01-12 11:00:00 -15.8 0 Calma 3 Nordeste 0 -- -- 89
2021-01-12 10:00:00 -19.6 3 Este 5 Oeste 0 -- -- 87
2021-01-12 09:00:00 -23 0 Calma -- -- 0 -- -- 84
2021-01-12 08:00:00 -23.9 2 Sudoeste 3 Sudoeste 0 -- -- 83
2021-01-12 07:00:00 -25 0 Calma 4 Sudoeste 0 -- -- 83
2021-01-12 06:00:00 -25.2 0 Calma 4 Sudoeste 0 -- -- 82
2021-01-12 05:00:00 -25 0 Calma 5 Norte 0 -- -- 83
2021-01-12 04:00:00 -25 0 Calma 3 Sur 0 -- -- 83
2021-01-12 03:00:00 -24.1 0 Calma 3 Sudeste 0 -- -- 83
2021-01-12 02:00:00 -23.6 2 Sur 4 Sur 0 -- -- 83
2021-01-12 01:00:00 -22.2 0 Calma 4 Norte 0 -- -- 85
2021-01-12 00:00:00 -20.2 0 Calma 3 Norte 0 -- -- 86
2021-01-11 23:00:00 -18.9 2 Noroeste 4 Oeste 0 -- -- 87
2021-01-11 22:00:00 -17.6 0 Calma 7 Noroeste 0 -- -- 87
2021-01-11 21:00:00 -16.6 4 Oeste 8 Oeste 0 -- -- 88
2021-01-11 20:00:00 -13.9 8 Oeste 14 Oeste 0 -- -- 86
2021-01-11 19:00:00 -13.4 6 Oeste 8 Oeste 0 -- -- 82
2021-01-11 18:00:00 -9.6 2 Oeste 13 Noroeste 0 -- -- 73
2021-01-11 17:00:00 -7.6 4 Noroeste 8 Norte 0 -- -- 76
2021-01-11 16:00:00 -6.5 0 Calma 10 Nordeste 0 -- -- 72
2021-01-11 15:00:00 -6.7 4 Sudoeste 9 Sur 0 -- -- 77
2021-01-11 14:00:00 -8.7 5 Norte 12 Nordeste 0 -- -- 77
2021-01-11 13:00:00 -9.3 2 Este 6 Este 0 -- -- 81
2021-01-11 12:00:00 -10.6 0 Calma 5 Nordeste 0 -- -- 84
2021-01-11 11:00:00 -13.3 2 Este 5 Este 0 -- -- 86
2021-01-11 10:00:00 -14.5 0 Calma 4 Noroeste 0 -- -- 91
2021-01-11 09:00:00 -15.8 3 Norte 9 Oeste 0 -- -- 88
2021-01-11 08:00:00 -14.6 3 Oeste 6 Sudoeste 0 -- -- 89
2021-01-11 07:00:00 -13 3 Norte 9 Oeste 0 -- -- 85
2021-01-11 06:00:00 -7.4 5 Noroeste 12 Noroeste 0 -- -- 85
2021-01-11 05:00:00 -4.8 8 Noroeste 13 Norte 0 -- -- 89
2021-01-11 04:00:00 -3.9 8 Noroeste 14 Noroeste 0 -- -- 92
2021-01-11 03:00:00 -3.5 9 Noroeste 15 Noroeste 0 -- -- 94
2021-01-11 02:00:00 -3.4 5 Noroeste 9 Noroeste 0 -- -- 96
2021-01-11 01:00:00 -3.5 3 Sudeste 8 Este 0 -- -- 96
2021-01-11 00:00:00 -3.2 6 Este 13 Nordeste 0 -- -- 96
2021-01-10 23:00:00 -3.1 3 Este 6 Nordeste 0 -- -- 96
2021-01-10 22:00:00 -3 5 Este 8 Este 0 -- -- 96
2021-01-10 21:00:00 -3.1 6 Sudeste 8 Sudeste 0 -- -- 96
2021-01-10 20:00:00 -2.9 5 Sudeste 8 Sudeste 0 -- -- 96
2021-01-10 19:00:00 -2.8 4 Sudeste 10 Este 0 -- -- 96
2021-01-10 18:00:00 -2.4 7 Este 11 Este 0 -- -- 95
2021-01-10 17:00:00 -0.9 0 Calma 4 Nordeste 0 -- -- 95
2021-01-10 16:00:00 -0.5 2 Sudoeste 6 Sudoeste 0 -- -- 94
2021-01-10 15:00:00 -1 5 Sudoeste 8 Oeste 0 -- -- 95
2021-01-10 14:00:00 -0.9 5 Oeste 8 Oeste 0 -- -- 95
2021-01-10 13:00:00 -1.4 0 Calma 12 Este 0 -- -- 98
2021-01-10 12:00:00 -1.5 8 Este 12 Este 0 -- -- 98
2021-01-10 11:00:00 -2.1 10 Este 13 Este 0.8 -- -- 98
2021-01-10 10:00:00 -2.8 3 Este 5 Este 0.2 -- -- 98
2021-01-10 09:00:00 -3.5 3 Sudoeste 6 Sur 0 -- -- 97
2021-01-10 08:00:00 -3.7 0 Calma 5 Sur 0.2 -- -- 97
2021-01-10 07:00:00 -3.8 0 Calma 6 Oeste 0 -- -- 97
2021-01-10 06:00:00 -3.8 3 Oeste 8 Oeste 0 -- -- 97
2021-01-10 05:00:00 -4 4 Noroeste 6 Noroeste 0 -- -- 97
2021-01-10 04:00:00 -4.1 4 Noroeste 9 Nordeste 0 -- -- 97
2021-01-10 03:00:00 -4.4 0 Calma 8 Este 0 -- -- 96
2021-01-10 02:00:00 -4 2 Sur 10 Sudeste 0 -- -- 96
2021-01-10 01:00:00 -3.6 6 Nordeste 17 Nordeste 0 -- -- 97
2021-01-10 00:00:00 -3.8 16 Nordeste 22 Nordeste 0 -- -- 97
2021-01-09 23:00:00 -4 6 Sudeste 10 Este 0 -- -- 97
2021-01-09 22:00:00 -3.4 5 Este 13 Este 0.6 -- -- 97
2021-01-09 21:00:00 -3.3 11 Este 19 Este 0.6 -- -- 97
2021-01-09 20:00:00 -3.9 7 Este 26 Este 0.2 -- -- 96
2021-01-09 19:00:00 -4 14 Este 19 Este 0.4 -- -- 96
2021-01-09 18:00:00 -4.2 10 Este 18 Este 0.6 -- -- 96
2021-01-09 17:00:00 -4.1 12 Este 21 Este 1.6 -- -- 96
2021-01-09 16:00:00 -3.8 12 Este 19 Nordeste 2.2 -- -- 96
2021-01-09 15:00:00 -3.8 12 Este 23 Este 3 -- -- 95
2021-01-09 14:00:00 -3.8 16 Este 25 Nordeste 1.6 -- -- 95
2021-01-09 13:00:00 -4 13 Este 24 Este 1 -- -- 96
2021-01-09 12:00:00 -4.2 17 Nordeste 30 Este 0.2 -- -- 96
2021-01-09 11:00:00 -4.4 19 Nordeste 27 Nordeste 0 -- -- 96
2021-01-09 10:00:00 -4.7 15 Nordeste 26 Nordeste 0 -- -- 96
2021-01-09 09:00:00 -4.9 17 Nordeste 28 Este 0.6 -- -- 96
2021-01-09 08:00:00 -4.9 14 Nordeste 22 Este 0.6 -- -- 96
2021-01-09 07:00:00 -4.5 14 Este 21 Este 0.4 -- -- 96
2021-01-09 06:00:00 -4.5 15 Este 27 Este 0.2 -- -- 96
2021-01-09 05:00:00 -4.3 17 Este 28 Este 1 -- -- 96
2021-01-09 04:00:00 -4.2 15 Este 24 Este 0.8 -- -- 96
2021-01-09 03:00:00 -4.2 13 Este 18 Este 1.4 -- -- 96
2021-01-09 02:00:00 -4.3 14 Este 21 Este 1.2 -- -- 96
2021-01-09 01:00:00 -4.5 12 Este 22 Este 1.2 -- -- 96
2021-01-09 00:00:00 -4.5 15 Este 23 Este 2.6 -- -- 96
2021-01-08 23:00:00 -4.4 17 Este 29 Este 2 -- -- 96
2021-01-08 22:00:00 -4.1 15 Este 23 Este 1.6 -- -- 95
2021-01-08 21:00:00 -4.1 12 Este 21 Este 1.2 -- -- 95
2021-01-08 20:00:00 -3.9 13 Este 18 Este 1 -- -- 95
2021-01-08 19:00:00 -4 10 Este 19 Nordeste 0.8 -- -- 95
2021-01-08 18:00:00 -3.9 11 Este 22 Este 0.4 -- -- 94
2021-01-08 17:00:00 -3.7 15 Nordeste 23 Nordeste 0 -- -- 92
2021-01-08 16:00:00 -3.3 12 Nordeste 27 Nordeste 0.2 -- -- 92
2021-01-08 15:00:00 -3 16 Nordeste 22 Nordeste 0 -- -- 89
2021-01-08 14:00:00 -2.4 14 Nordeste 21 Nordeste 0 -- -- 83
2021-01-08 13:00:00 -1.9 12 Este 20 Nordeste 0 -- -- 78
2021-01-08 12:00:00 -2.9 15 Este 23 Este 0 -- -- 79
2021-01-08 11:00:00 -3.6 15 Este 23 Este 0 -- -- 84
2021-01-08 10:00:00 -4.3 13 Este 18 Nordeste 0 -- -- 88
2021-01-08 09:00:00 -4.6 10 Este 17 Este 0 -- -- 92
2021-01-08 08:00:00 -4.5 12 Nordeste 18 Nordeste 0 -- -- 93
2021-01-08 07:00:00 -5 4 Sudeste 10 Nordeste 0 -- -- 92
2021-01-08 06:00:00 -4.2 6 Este 12 Este 0 -- -- 91
2021-01-08 05:00:00 -4 10 Este 18 Este 0 -- -- 90
2021-01-08 04:00:00 -3.8 13 Este 20 Nordeste 0 -- -- 90
2021-01-08 03:00:00 -3.4 12 Nordeste 17 Nordeste 0 -- -- 89
2021-01-08 02:00:00 -2.7 9 Este 13 Nordeste 0 -- -- 84
2021-01-08 01:00:00 -2.6 7 Este 10 Este 0 -- -- 85
2021-01-08 00:00:00 -2.7 5 Sur 7 Sur 0 -- -- 91
2021-01-07 23:00:00 -2.8 4 Sur 7 Sur 0 -- -- 93
2021-01-07 22:00:00 -2.9 5 Sur 6 Sur 0 -- -- 93
2021-01-07 21:00:00 -3 0 Calma 4 Sudeste 0 -- -- 92
2021-01-07 20:00:00 -2.5 3 Sudeste 5 Sudeste 0 -- -- 90
2021-01-07 19:00:00 -2.2 4 Sur 11 Sudoeste 0 -- -- 88
2021-01-07 18:00:00 -1.6 0 Calma 12 Noroeste 0 -- -- 82
2021-01-07 17:00:00 -1.4 9 Norte 14 Noroeste 0 -- -- 79
2021-01-07 16:00:00 -1.4 4 Nordeste 10 Este 0 -- -- 81
2021-01-07 15:00:00 -1.2 6 Nordeste 10 Este 0 -- -- 78
2021-01-07 14:00:00 -1.2 4 Norte 14 Este 0 -- -- 75
2021-01-07 13:00:00 -1.6 9 Este 15 Este 0 -- -- 79
2021-01-07 12:00:00 -2.2 8 Este 13 Este 0 -- -- 84
2021-01-07 11:00:00 -2.6 5 Este 11 Nordeste 0 -- -- 87
2021-01-07 10:00:00 -3.4 2 Sudeste 5 Sudeste 0 -- -- 90
2021-01-07 09:00:00 -3.5 5 Nordeste 8 Nordeste 0 -- -- 88
2021-01-07 08:00:00 -4.6 0 Calma 5 Oeste 0 -- -- 90
2021-01-07 07:00:00 -4 4 Sudeste 8 Sur 0 -- -- 89
2021-01-07 06:00:00 -4.7 4 Sudoeste 9 Sudoeste 0 -- -- 92
2021-01-07 05:00:00 -4.7 2 Oeste 3 Norte 0 -- -- 91
2021-01-07 04:00:00 -4.4 0 Calma 4 Nordeste 0 -- -- 90
2021-01-07 03:00:00 -4.3 3 Nordeste 5 Nordeste 0 -- -- 91
2021-01-07 02:00:00 -4.6 3 Sudoeste 6 Sudoeste 0 -- -- 90
2021-01-07 01:00:00 -5 2 Sudoeste 6 Sur 0 -- -- 90
2021-01-07 00:00:00 -5.3 3 Sudeste 7 Sudoeste 0 -- -- 89
2021-01-06 23:00:00 -5 2 Sudoeste 4 Sudoeste 0 -- -- 89
2021-01-06 22:00:00 -4.2 0 Calma 5 Sudeste 0 -- -- 89
2021-01-06 21:00:00 -4.1 4 Oeste 12 Sudoeste 0 -- -- 88
2021-01-06 20:00:00 -4.1 3 Sudoeste 8 Oeste 0 -- -- 86
2021-01-06 19:00:00 -2.8 3 Sudoeste 8 Sudoeste 0 -- -- 84
2021-01-06 18:00:00 -1.3 4 Sur 6 Sur 0 -- -- 79
2021-01-06 17:00:00 1.1 5 Este 10 Oeste 0 -- -- 68
2021-01-06 16:00:00 2.9 5 Oeste 11 Oeste 0 -- -- 60
2021-01-06 15:00:00 2 6 Norte 13 Norte 0 -- -- 64
2021-01-06 14:00:00 1.8 3 Sudeste 8 Sudeste 0 -- -- 69
2021-01-06 13:00:00 0.2 6 Sudeste 8 Sudeste 0 -- -- 77
2021-01-06 12:00:00 -2.8 4 Nordeste 7 Nordeste 0 -- -- 83
2021-01-06 11:00:00 -3.7 4 Sudeste 6 Sudeste 0 -- -- 85
2021-01-06 10:00:00 -6.9 2 Oeste 8 Sudoeste 0 -- -- 91
2021-01-06 09:00:00 -9.8 2 Oeste 6 Sudoeste 0 -- -- 92
2021-01-06 08:00:00 -9.9 2 Sudoeste 8 Sur 0 -- -- 91
2021-01-06 07:00:00 -9.8 3 Sudoeste 4 Sur 0 -- -- 90
2021-01-06 06:00:00 -9.1 2 Noroeste 5 Sudeste 0 -- -- 91
2021-01-06 05:00:00 -8.8 3 Sudoeste 5 Oeste 0 -- -- 89
2021-01-06 04:00:00 -7.5 5 Oeste 10 Oeste 0 -- -- 89
2021-01-06 03:00:00 -7.7 2 Oeste 5 Nordeste 0 -- -- 91
2021-01-06 02:00:00 -6.8 3 Oeste 9 Oeste 0 -- -- 86
2021-01-06 01:00:00 -5.6 2 Sur 12 Oeste 0 -- -- 85
2021-01-06 00:00:00 -4.3 9 Oeste 15 Oeste 0 -- -- 84
2021-01-05 23:00:00 -2.7 8 Oeste 9 Sudoeste 0 -- -- 89
2021-01-05 22:00:00 -3.9 3 Oeste 5 Oeste 0 -- -- 91
2021-01-05 21:00:00 -3.9 4 Oeste 9 Sudoeste 0 -- -- 88
2021-01-05 20:00:00 -3.5 2 Noroeste 9 Oeste 0 -- -- 85
2021-01-05 19:00:00 -2.1 4 Noroeste 8 Norte 0 -- -- 82
2021-01-05 18:00:00 -0.4 4 Noroeste 15 Norte 0 -- -- 78
2021-01-05 17:00:00 1.2 9 Norte 20 Norte 0 -- -- 69
2021-01-05 16:00:00 1.3 8 Norte 20 Norte 0 -- -- 73
2021-01-05 15:00:00 0.4 7 Norte 17 Norte 0 -- -- 78
2021-01-05 14:00:00 0.4 6 Norte 17 Nordeste 0 -- -- 78
2021-01-05 13:00:00 -0.6 10 Norte 15 Norte 0 -- -- 81
2021-01-05 12:00:00 -1.3 9 Norte 20 Noroeste 0 -- -- 83
2021-01-05 11:00:00 -2.9 6 Norte 10 Noroeste 0 -- -- 85
2021-01-05 10:00:00 -5.4 3 Norte 12 Noroeste 0 -- -- 88
2021-01-05 09:00:00 -6.2 8 Noroeste 13 Noroeste 0 -- -- 87
2021-01-05 08:00:00 -5.4 6 Noroeste 14 Noroeste 0 -- -- 84
2021-01-05 07:00:00 -6.5 7 Oeste 12 Oeste 0 -- -- 90
2021-01-05 06:00:00 -6.1 5 Noroeste 14 Oeste 0 -- -- 87
2021-01-05 05:00:00 -6 7 Noroeste 10 Oeste 0 -- -- 89
2021-01-05 04:00:00 -5.3 6 Oeste 15 Oeste 0 -- -- 88
2021-01-05 03:00:00 -5.5 6 Noroeste 10 Noroeste 0 -- -- 90
2021-01-05 02:00:00 -5 3 Noroeste 16 Oeste 0 -- -- 86
2021-01-05 01:00:00 -4.3 9 Oeste 17 Oeste 0 -- -- 86
2021-01-05 00:00:00 -3.4 5 Noroeste 19 Noroeste 0 -- -- 85
2021-01-04 23:00:00 -3.1 7 Noroeste 13 Oeste 0 -- -- 84
2021-01-04 22:00:00 -2.2 5 Noroeste 17 Oeste 0 -- -- 79
2021-01-04 21:00:00 -1.6 10 Oeste 16 Noroeste 0 -- -- 77
2021-01-04 20:00:00 -1.3 5 Noroeste 14 Oeste 0 -- -- 80
2021-01-04 19:00:00 -1.3 11 Oeste 27 Oeste 0 -- -- 84
2021-01-04 18:00:00 0 9 Noroeste 15 Noroeste 0 -- -- 76
2021-01-04 17:00:00 0.3 8 Noroeste 18 Norte 0 -- -- 74
2021-01-04 16:00:00 0.3 13 Noroeste 35 Noroeste 0 -- -- 74
2021-01-04 15:00:00 1.5 19 Noroeste 33 Oeste 0 -- -- 65
2021-01-04 14:00:00 0.4 19 Noroeste 35 Noroeste 0 -- -- 70
2021-01-04 13:00:00 0.1 21 Oeste 32 Oeste 0 -- -- 69
2021-01-04 12:00:00 -0.2 17 Noroeste 28 Oeste 0 -- -- 78
2021-01-04 11:00:00 -1.2 5 Nordeste 11 Noroeste 0 -- -- 83
2021-01-04 10:00:00 -2.1 8 Noroeste 13 Oeste 0 -- -- 84
2021-01-04 09:00:00 -2.3 9 Oeste 18 Oeste 0 -- -- 88
2021-01-04 08:00:00 -2.9 4 Oeste 9 Noroeste 0 -- -- 90
2021-01-04 07:00:00 -2.7 3 Oeste 14 Noroeste 0 -- -- 86
2021-01-04 06:00:00 -3.4 3 Norte 9 Noroeste 0 -- -- 94
2021-01-04 05:00:00 -6.4 3 Sur 10 Oeste 0 -- -- 86
2021-01-04 04:00:00 -3.8 8 Oeste 17 Noroeste 0 -- -- 88
2021-01-04 03:00:00 -2 9 Oeste 22 Oeste 0.2 -- -- 91
2021-01-04 02:00:00 -1.3 12 Oeste 26 Oeste 0 -- -- 92
2021-01-04 01:00:00 -1.2 8 Oeste 18 Noroeste 0 -- -- 91
2021-01-04 00:00:00 -0.8 4 Oeste 22 Oeste 0 -- -- 84
2021-01-03 23:00:00 -1.6 14 Oeste 21 Oeste 0 -- -- 83
2021-01-03 22:00:00 -1.6 12 Sudoeste 16 Oeste 0 -- -- 82
2021-01-03 21:00:00 -0.9 7 Oeste 15 Noroeste 0 -- -- 80
2021-01-03 20:00:00 -0.2 9 Noroeste 16 Noroeste 0 -- -- 80
2021-01-03 19:00:00 -0.3 12 Noroeste 17 Oeste 0 -- -- 78
2021-01-03 18:00:00 0.3 9 Noroeste 31 Noroeste 0 -- -- 78
2021-01-03 17:00:00 1.1 18 Noroeste 35 Noroeste 0 -- -- 73
2021-01-03 16:00:00 2.5 18 Noroeste 33 Noroeste 0 -- -- 70
2021-01-03 15:00:00 2.7 21 Noroeste 33 Noroeste 0 -- -- 67
2021-01-03 14:00:00 1.6 18 Norte 33 Norte 0 -- -- 73
2021-01-03 13:00:00 1.4 19 Norte 33 Norte 0 -- -- 73
2021-01-03 12:00:00 0.5 12 Noroeste 22 Noroeste 0 -- -- 76
2021-01-03 11:00:00 -1.7 12 Noroeste 22 Noroeste 0 -- -- 82
2021-01-03 10:00:00 -3.6 2 Nordeste 9 Norte 0 -- -- 88
2021-01-03 09:00:00 -5.3 6 Sudoeste 14 Noroeste 0 -- -- 89
2021-01-03 08:00:00 -4.9 8 Norte 18 Noroeste 0 -- -- 89
2021-01-03 07:00:00 -5.6 9 Oeste 14 Noroeste 0 -- -- 91
2021-01-03 06:00:00 -6.2 7 Noroeste 18 Oeste 0 -- -- 90
2021-01-03 05:00:00 -6.8 3 Oeste 15 Oeste 0 -- -- 82
2021-01-03 04:00:00 -5.5 10 Noroeste 24 Norte 0 -- -- 79
2021-01-03 03:00:00 -5 6 Norte 22 Noroeste 0 -- -- 79
2021-01-03 02:00:00 -4.3 15 Noroeste 24 Norte 0 -- -- 79
2021-01-03 01:00:00 -3.8 14 Norte 27 Norte 0 -- -- 78
2021-01-03 00:00:00 -3.2 17 Noroeste 31 Noroeste 0 -- -- 76
2021-01-02 23:00:00 -2.3 21 Noroeste 34 Noroeste 0 -- -- 75
2021-01-02 22:00:00 -1.8 18 Noroeste 28 Noroeste 0 -- -- 77
2021-01-02 21:00:00 -2.4 15 Norte 34 Norte 0 -- -- 80
2021-01-02 20:00:00 -2.1 21 Norte 39 Norte 0 -- -- 78
2021-01-02 19:00:00 -1.9 20 Norte 35 Norte 0 -- -- 79
2021-01-02 18:00:00 -1.9 18 Norte 39 Norte 0 -- -- 77
2021-01-02 17:00:00 -0.8 20 Norte 39 Norte 0 -- -- 71
2021-01-02 16:00:00 -0.4 23 Norte 39 Norte 0 -- -- 66
2021-01-02 15:00:00 -0.6 19 Norte 49 Noroeste 0 -- -- 74
2021-01-02 14:00:00 -0.4 19 Norte 42 Norte 0 -- -- 78